METAR Data
IDs: Format: Raw Decoded Include TAF

Data at: 1346 UTC 14 Dec 2019

PAPM 141256Z AUTO 09011KT 10SM OVC015 02/00 A2925 RMK AO2 SLP908 T00170000 FZRANO
PAPM 141156Z AUTO 07015KT 10SM BKN017 01/00 A2927 RMK AO2 SLP914 70003 T00060000 10011 21022 58027 FZRANO
PAPM 141149Z AUTO 08017KT 10SM BKN017 01/M01 A2927 RMK AO2 FZRANO
PAPM 141121Z AUTO 08015KT 10SM SCT015 OVC050 01/M01 A2928 RMK AO2 FZRANO
PAPM 141056Z AUTO 08010KT 10SM BKN015 BKN043 OVC055 01/M01 A2930 RMK AO2 SLP923 T00061006 FZRANO
PAPM 141007Z AUTO 09008KT 10SM SCT010 OVC060 00/M01 A2932 RMK AO2 FZRANO
PAPM 140956Z AUTO 08009KT 10SM BKN010 OVC060 00/M01 A2933 RMK AO2 SLP933 T00001011 FZRANO
PAPM 140856Z AUTO 08009KT 10SM OVC012 M01/M02 A2935 RMK AO2 SLP941 T10061017 400221028 58012 FZRANO
PAPM 140840Z AUTO 07004KT 10SM BKN012 OVC060 00/M02 A2935 RMK AO2 FZRANO
PAPM 140756Z AUTO 05007KT 10SM OVC060 01/M02 A2937 RMK AO2 SLP946 T00061022 FZRANO
PAPM 140656Z AUTO 10011KT 10SM BKN070 M01/M02 A2937 RMK AO2 SLP947 T10061022 FZRANO
PAPM 140556Z AUTO VRB04KT 10SM FEW075 M02/M03 A2938 RMK AO2 SLP952 T10171028 10017 21028 56006 FZRANO
PAPM 140456Z AUTO 00000KT 10SM CLR M02/M04 A2939 RMK AO2 SLP953 T10221039 FZRANO
PAPM 140356Z AUTO 12007KT 10SM CLR M02/M03 A2939 RMK AO2 SLP955 T10171028 FZRANO
PAPM 140256Z AUTO 13005KT 10SM BKN080 OVC110 00/M02 A2940 RMK AO2 SLP958 T00001022 58003 FZRANO
PAPM 140156Z AUTO 15004KT 10SM OVC039 01/M01 A2941 RMK AO2 SLP962 T00111011 FZRANO
PAPM 140056Z AUTO 14003KT 9SM BKN090 OVC110 01/M01 A2941 RMK AO2 SLP960 T00111006 FZRANO
PAPM 132356Z AUTO 22005KT 10SM OVC110 02/M01 A2941 RMK AO2 SLP962 60002 T00171011 10022 20011 51011 FZRANO
PAPM 132256Z AUTO 23007KT 10SM OVC031 02/M01 A2941 RMK AO2 SLP961 T00221006 FZRANO
PAPM 132232Z AUTO 22007KT 10SM OVC031 02/M01 A2941 RMK AO2 FZRANO
PAPM 132156Z AUTO 24008KT 10SM OVC026 02/M01 A2940 RMK AO2 UPE08 SLP956 P0000 T00221006 FZRANO
PAPM 132056Z AUTO 25004KT 10SM UP BKN018 OVC026 02/01 A2938 RMK AO2 RAE50UPB06E20B50 SLP951 P0001 60002 T00170011 53020 FZRANO
PAPM 132028Z AUTO 28007KT 6SM -RA BR SCT009 BKN015 OVC023 02/01 A2937 RMK AO2 UPB06E20 P0001 FZRANO
PAPM 132011Z AUTO 25004KT 2 1/2SM UP BR SCT009 BKN015 OVC021 02/01 A2937 RMK AO2 RAE06UPB06 P0000 FZRANO
PAPM 132007Z AUTO 26003KT 3SM UP BR FEW005 BKN013 OVC021 02/01 A2936 RMK AO2 RAE06UPB06 P0000 FZRANO
PAPM 132003Z AUTO 27003KT 2 1/2SM -RA BR FEW005 BKN015 OVC021 02/01 A2936 RMK AO2 P0000 FZRANO
PAPM 131956Z AUTO 30004KT 1 3/4SM -RA BR SCT007 BKN015 OVC021 02/01 A2936 RMK AO2 UPB29E38RAB38 SLP944 P0001 T00170011 FZRANO
PAPM 131935Z AUTO 16005KT 1 1/4SM UP BR OVC007 01/01 A2935 RMK AO2 UPB29 CIG 004V010 P0000 FZRANO
PAPM 131924Z AUTO 16003KT 2 1/2SM BR BKN009 OVC016 01/01 A2935 RMK AO2 CIG 006V010 FZRANO
PAPM 131856Z AUTO 00000KT 10SM BKN011 OVC018 02/01 A2934 RMK AO2 SLP936 T00170011 FZRANO
PAPM 131805Z AUTO 26005KT 10SM BKN011 BKN019 OVC040 01/01 A2933 RMK AO2 FZRANO
PAPM 131756Z AUTO 26006KT 10SM BKN009 BKN019 OVC040 01/01 A2932 RMK AO2 CIG 008V015 SLP931 60001 T00110011 10017 20011 53015 FZRANO
PAPM 131746Z AUTO 25007KT 10SM SCT007 BKN015 OVC037 01/01 A2932 RMK AO2 FZRANO
PAPM 131739Z AUTO 24005KT 10SM FEW002 BKN007 OVC019 01/01 A2932 RMK AO2 CIG 005V009 FZRANO
PAPM 131731Z AUTO 23005KT 2SM BR FEW002 OVC007 01/01 A2932 RMK AO2 CIG 005V013 FZRANO
PAPM 131724Z AUTO 23005KT 1SM BR FEW002 OVC007 01/01 A2931 RMK AO2 CIG 005V009 FZRANO
PAPM 131719Z AUTO 24007KT 1 3/4SM BR SCT002 OVC005 01/01 A2931 RMK AO2 FZRANO
PAPM 131706Z AUTO 24006KT 10SM FEW002 BKN005 OVC037 01/01 A2931 RMK AO2 FZRANO
PAPM 131633Z AUTO 25006KT 10SM SCT005 BKN020 OVC037 02/01 A2930 RMK AO2 FZRANO
PAPM 131621Z AUTO 25007KT 10SM BKN005 BKN008 OVC022 02/01 A2929 RMK AO2 FZRANO
PAPM 131611Z AUTO 25008KT 10SM SCT005 BKN008 OVC022 02/01 A2929 RMK AO2 FZRANO
PAPM 131556Z AUTO 25007KT 5SM BR OVC005 02/01 A2929 RMK AO2 UPE54RAB05E16 CIG 003V008 SLP920 P0001 T00170011 FZRANO
PAPM 131552Z AUTO 25006KT 3SM UP BR BKN005 OVC008 02/02 A2929 RMK AO2 RAB05E16 CIG 003V007 P0001 FZRANO
PAPM 131547Z AUTO 25006KT 1 1/4SM UP BR OVC005 02/02 A2929 RMK AO2 RAB05E16 P0001 FZRANO
PAPM 131511Z AUTO 20003KT 3/4SM -RA BR OVC005 02/01 A2928 RMK AO2 UPE05RAB05 P0000 FZRANO
PAPM 131456Z AUTO 21003KT 1SM UP BR BKN005 OVC014 02/01 A2928 RMK AO2 UPB03 SLP916 P0000 60000 T00170011 53003 FZRANO
PAPM 131446Z AUTO 22003KT 1SM UP BR SCT005 BKN013 OVC019 02/01 A2928 RMK AO2 UPB03 P0000 FZRANO
PAPM 131438Z AUTO 22003KT 1 1/4SM UP BR BKN005 OVC010 02/01 A2928 RMK AO2 UPB03 CIG 003V008 P0000 FZRANO
PAPM 131428Z AUTO 23004KT 1SM UP BR BKN005 OVC010 02/01 A2928 RMK AO2 UPB03 CIG 002V006 P0000 FZRANO
PAPM 131419Z AUTO 23005KT 1SM UP BR BKN003 OVC008 02/01 A2927 RMK AO2 UPB03 CIG 002V007 P0000 FZRANO
PAPM 131410Z AUTO 23005KT 1 1/4SM UP BR OVC003 02/01 A2927 RMK AO2 UPB03 P0000 FZRANO
PAPM 131403Z AUTO 22005KT 1 3/4SM UP BR OVC005 02/01 A2927 RMK AO2 UPB03 CIG 003V006 P0000 FZRANO
PAPM 131356Z AUTO 22005KT 4SM BR OVC005 02/01 A2927 RMK AO2 CIG 003V006 SLP914 T00170011 FZRANO
PAPM 131354Z AUTO 22005KT 5SM BR OVC005 02/01 A2927 RMK AO2 CIG 003V006 FZRANO
PAPM 131256Z AUTO 20004KT 10SM OVC007 02/01 A2926 RMK AO2 SLP911 T00170011 FZRANO
PAPM 131213Z AUTO 19005KT 10SM OVC009 02/01 A2925 RMK AO2 CIG 006V012 FZRANO
PAPM 131156Z AUTO 19004KT 8SM OVC005 02/01 A2925 RMK AO2 RAB1059E08B37E38UPB08E37 SLP908 P0000 60001 70005 T00170011 10017 20006 53011 FZRANO
PAPM 131056Z AUTO 00000KT 5SM BR OVC005 01/01 A2924 RMK AO2 UPB30E54 SLP903 P0001 T00110006 FZRANO
PAPM 131043Z AUTO 00000KT 3SM UP BR BKN005 BKN040 OVC060 01/01 A2924 RMK AO2 UPB30 CIG 004V012 P0001 FZRANO
PAPM 131034Z AUTO 00000KT 4SM UP BR SCT005 BKN040 OVC055 01/01 A2924 RMK AO2 UPB30 P0001 FZRANO
PAPM 130956Z AUTO 00000KT 10SM BKN050 OVC065 01/00 A2923 RMK AO2 SLP900 T00060000 FZRANO
PAPM 130856Z AUTO 00000KT 5SM BR BKN055 OVC070 01/01 A2922 RMK AO2 SLP897 60000 T00060006 400170000 51006 FZRANO
PAPM 130756Z AUTO 00000KT 10SM BKN055 01/01 A2922 RMK AO2 RAE11UPB11E13 SLP896 P0000 T00110006 FZRANO
PAPM 130656Z AUTO 24004KT 10SM -RA BKN040 OVC055 01/01 A2921 RMK AO2 UPB40E52RAB52 SLP893 P0000 T00110006 FZRANO
PAPM 130556Z AUTO 25003KT 8SM OVC040 01/01 A2920 RMK AO2 SLP891 60000 T00060006 10011 20000 52004 FZRANO
PAPM 130456Z AUTO 26003KT 4SM BR OVC034 01/00 A2920 RMK AO2 SLP889 T00060000 FZRANO
PAPM 130356Z AUTO 00000KT 7SM FEW036 BKN065 00/00 A2920 RMK AO2 SLP889 T00000000 FZRANO
PAPM 130256Z AUTO 00000KT 4SM BR SCT033 BKN055 01/00 A2919 RMK AO2 SLP887 60000 T00060000 51002 FZRANO
PAPM 130156Z AUTO 00000KT 10SM OVC033 01/01 A2919 RMK AO2 SLP887 T00110006 FZRANO